sensor_id;sensor_type;location;lat;lon;timestamp;pressure;altitude;pressure_sealevel;temperature;humidity
58975;BME280;44751;52.236;5.178;2023-02-02T00:01:33;101932.38;;;7.14;100.00
58975;BME280;44751;52.236;5.178;2023-02-02T00:04:00;101932.75;;;7.09;100.00
58975;BME280;44751;52.236;5.178;2023-02-02T00:06:28;101927.50;;;7.08;100.00
58975;BME280;44751;52.236;5.178;2023-02-02T00:09:00;101928.94;;;7.12;100.00
58975;BME280;44751;52.236;5.178;2023-02-02T00:11:27;101930.19;;;7.08;100.00
58975;BME280;44751;52.236;5.178;2023-02-02T00:13:54;101938.59;;;7.15;100.00
58975;BME280;44751;52.236;5.178;2023-02-02T00:16:42;101932.03;;;7.07;100.00
58975;BME280;44751;52.236;5.178;2023-02-02T00:19:16;101935.19;;;7.13;100.00
58975;BME280;44751;52.236;5.178;2023-02-02T00:21:43;101936.69;;;7.27;100.00
58975;BME280;44751;52.236;5.178;2023-02-02T00:24:15;101933.88;;;7.07;100.00
58975;BME280;44751;52.236;5.178;2023-02-02T00:26:44;101926.81;;;7.06;100.00
58975;BME280;44751;52.236;5.178;2023-02-02T00:29:18;101938.59;;;7.15;100.00
58975;BME280;44751;52.236;5.178;2023-02-02T00:31:47;101930.69;;;7.13;100.00
58975;BME280;44751;52.236;5.178;2023-02-02T00:34:14;101937.53;;;7.06;100.00
58975;BME280;44751;52.236;5.178;2023-02-02T00:36:42;101940.31;;;7.16;100.00
58975;BME280;44751;52.236;5.178;2023-02-02T00:39:13;101938.72;;;7.13;100.00
58975;BME280;44751;52.236;5.178;2023-02-02T00:41:40;101935.72;;;7.06;100.00
58975;BME280;44751;52.236;5.178;2023-02-02T00:44:06;101934.41;;;7.01;100.00
58975;BME280;44751;52.236;5.178;2023-02-02T00:46:50;101935.09;;;7.03;100.00
58975;BME280;44751;52.236;5.178;2023-02-02T00:49:17;101934.66;;;6.97;100.00
58975;BME280;44751;52.236;5.178;2023-02-02T00:51:44;101940.84;;;6.98;100.00
58975;BME280;44751;52.236;5.178;2023-02-02T00:54:10;101946.50;;;6.95;100.00
58975;BME280;44751;52.236;5.178;2023-02-02T00:56:38;101945.66;;;6.83;100.00
58975;BME280;44751;52.236;5.178;2023-02-02T00:59:05;101954.13;;;6.78;100.00
58975;BME280;44751;52.236;5.178;2023-02-02T01:01:31;101941.56;;;6.67;100.00
58975;BME280;44751;52.236;5.178;2023-02-02T01:03:58;101944.44;;;6.54;100.00
58975;BME280;44751;52.236;5.178;2023-02-02T01:06:25;101944.19;;;6.46;100.00
58975;BME280;44751;52.236;5.178;2023-02-02T01:08:52;101949.06;;;6.29;100.00
58975;BME280;44751;52.236;5.178;2023-02-02T01:11:19;101957.38;;;6.38;100.00
58975;BME280;44751;52.236;5.178;2023-02-02T01:13:45;101948.47;;;6.26;100.00
58975;BME280;44751;52.236;5.178;2023-02-02T01:16:14;101967.81;;;6.41;100.00
58975;BME280;44751;52.236;5.178;2023-02-02T01:18:43;101952.97;;;6.25;100.00
58975;BME280;44751;52.236;5.178;2023-02-02T01:21:11;101952.50;;;6.31;100.00
58975;BME280;44751;52.236;5.178;2023-02-02T01:23:38;101958.50;;;6.24;100.00
58975;BME280;44751;52.236;5.178;2023-02-02T01:26:08;101954.81;;;6.36;100.00
58975;BME280;44751;52.236;5.178;2023-02-02T01:28:35;101949.47;;;6.25;100.00
58975;BME280;44751;52.236;5.178;2023-02-02T01:31:10;101948.13;;;6.19;100.00
58975;BME280;44751;52.236;5.178;2023-02-02T01:33:40;101944.59;;;6.18;100.00
58975;BME280;44751;52.236;5.178;2023-02-02T01:36:13;101952.38;;;6.22;100.00
58975;BME280;44751;52.236;5.178;2023-02-02T01:38:45;101949.47;;;6.25;100.00
58975;BME280;44751;52.236;5.178;2023-02-02T01:41:15;101949.94;;;6.18;100.00
58975;BME280;44751;52.236;5.178;2023-02-02T01:46:21;101961.41;;;6.20;100.00
58975;BME280;44751;52.236;5.178;2023-02-02T01:49:30;101956.75;;;6.23;100.00
58975;BME280;44751;52.236;5.178;2023-02-02T01:51:55;101960.53;;;6.20;100.00
58975;BME280;44751;52.236;5.178;2023-02-02T01:54:37;101955.31;;;6.18;100.00
58975;BME280;44751;52.236;5.178;2023-02-02T01:57:12;101945.81;;;6.14;100.00
58975;BME280;44751;52.236;5.178;2023-02-02T01:59:46;101952.22;;;6.00;100.00
58975;BME280;44751;52.236;5.178;2023-02-02T02:02:14;101947.91;;;6.11;100.00
58975;BME280;44751;52.236;5.178;2023-02-02T02:04:44;101947.25;;;6.07;100.00
58975;BME280;44751;52.236;5.178;2023-02-02T02:07:13;101953.25;;;6.22;100.00
58975;BME280;44751;52.236;5.178;2023-02-02T02:09:54;101955.06;;;6.22;100.00
58975;BME280;44751;52.236;5.178;2023-02-02T02:12:47;101937.28;;;6.20;100.00
58975;BME280;44751;52.236;5.178;2023-02-02T02:15:14;101939.97;;;6.20;100.00
58975;BME280;44751;52.236;5.178;2023-02-02T02:24:30;101938.97;;;6.33;100.00
58975;BME280;44751;52.236;5.178;2023-02-02T02:27:38;101933.50;;;6.35;100.00
58975;BME280;44751;52.236;5.178;2023-02-02T02:33:12;101931.97;;;6.53;100.00
58975;BME280;44751;52.236;5.178;2023-02-02T02:35:50;101923.72;;;6.45;100.00
58975;BME280;44751;52.236;5.178;2023-02-02T02:41:22;101917.25;;;6.48;100.00
58975;BME280;44751;52.236;5.178;2023-02-02T02:44:03;101923.94;;;6.53;100.00
58975;BME280;44751;52.236;5.178;2023-02-02T02:46:31;101911.84;;;6.59;100.00
58975;BME280;44751;52.236;5.178;2023-02-02T02:49:01;101923.44;;;6.59;100.00
58975;BME280;44751;52.236;5.178;2023-02-02T02:54:06;101919.41;;;6.65;100.00
58975;BME280;44751;52.236;5.178;2023-02-02T02:56:43;101920.47;;;6.74;100.00
58975;BME280;44751;52.236;5.178;2023-02-02T03:02:35;101922.50;;;6.82;100.00
58975;BME280;44751;52.236;5.178;2023-02-02T03:05:13;101944.88;;;6.71;100.00
58975;BME280;44751;52.236;5.178;2023-02-02T03:10:15;101938.47;;;6.83;100.00
58975;BME280;44751;52.236;5.178;2023-02-02T03:12:46;101948.59;;;6.80;100.00
58975;BME280;44751;52.236;5.178;2023-02-02T03:15:14;101939.81;;;6.89;100.00
58975;BME280;44751;52.236;5.178;2023-02-02T03:17:44;101940.94;;;6.75;100.00
58975;BME280;44751;52.236;5.178;2023-02-02T03:20:13;101944.19;;;6.90;100.00
58975;BME280;44751;52.236;5.178;2023-02-02T03:22:40;101955.28;;;6.85;100.00
58975;BME280;44751;52.236;5.178;2023-02-02T03:25:07;101939.81;;;6.89;100.00
58975;BME280;44751;52.236;5.178;2023-02-02T03:27:38;101965.84;;;6.98;100.00
58975;BME280;44751;52.236;5.178;2023-02-02T03:30:09;101951.34;;;7.01;100.00
58975;BME280;44751;52.236;5.178;2023-02-02T03:32:37;101951.09;;;7.04;100.00
58975;BME280;44751;52.236;5.178;2023-02-02T03:35:05;101951.34;;;7.01;100.00
58975;BME280;44751;52.236;5.178;2023-02-02T03:37:33;101944.97;;;6.81;100.00
58975;BME280;44751;52.236;5.178;2023-02-02T03:40:00;101938.53;;;7.05;100.00
58975;BME280;44751;52.236;5.178;2023-02-02T03:42:26;101942.91;;;7.06;100.00
58975;BME280;44751;52.236;5.178;2023-02-02T03:44:53;101944.84;;;7.04;100.00
58975;BME280;44751;52.236;5.178;2023-02-02T03:47:19;101951.81;;;7.06;100.00
58975;BME280;44751;52.236;5.178;2023-02-02T03:49:46;101942.16;;;7.04;100.00
58975;BME280;44751;52.236;5.178;2023-02-02T03:52:16;101950.50;;;7.01;100.00
58975;BME280;44751;52.236;5.178;2023-02-02T03:54:43;101939.34;;;7.05;100.00
58975;BME280;44751;52.236;5.178;2023-02-02T03:57:09;101959.91;;;6.95;100.00
58975;BME280;44751;52.236;5.178;2023-02-02T03:59:36;101949.50;;;7.02;100.00
58975;BME280;44751;52.236;5.178;2023-02-02T04:02:02;101937.78;;;7.03;100.00
58975;BME280;44751;52.236;5.178;2023-02-02T04:04:29;101952.53;;;7.08;100.00
58975;BME280;44751;52.236;5.178;2023-02-02T04:07:04;101945.53;;;7.17;100.00
58975;BME280;44751;52.236;5.178;2023-02-02T04:09:31;101945.22;;;7.10;100.00
58975;BME280;44751;52.236;5.178;2023-02-02T04:11:57;101944.59;;;7.07;100.00
58975;BME280;44751;52.236;5.178;2023-02-02T04:14:24;101929.38;;;7.07;100.00
58975;BME280;44751;52.236;5.178;2023-02-02T04:16:53;101933.03;;;7.06;100.00
58975;BME280;44751;52.236;5.178;2023-02-02T04:19:20;101925.19;;;7.15;100.00
58975;BME280;44751;52.236;5.178;2023-02-02T04:21:46;101928.38;;;7.08;100.00
58975;BME280;44751;52.236;5.178;2023-02-02T04:24:13;101924.00;;;7.07;100.00
58975;BME280;44751;52.236;5.178;2023-02-02T04:26:40;101936.81;;;7.04;100.00
58975;BME280;44751;52.236;5.178;2023-02-02T04:29:10;101934.97;;;7.04;100.00
58975;BME280;44751;52.236;5.178;2023-02-02T04:31:36;101928.75;;;7.04;100.00
58975;BME280;44751;52.236;5.178;2023-02-02T04:34:03;101952.97;;;7.14;100.00
58975;BME280;44751;52.236;5.178;2023-02-02T04:36:30;101938.53;;;7.26;100.00
58975;BME280;44751;52.236;5.178;2023-02-02T04:38:56;101951.75;;;7.18;100.00
58975;BME280;44751;52.236;5.178;2023-02-02T04:41:23;101951.50;;;7.21;100.00
58975;BME280;44751;52.236;5.178;2023-02-02T04:43:50;101958.75;;;7.30;100.00
58975;BME280;44751;52.236;5.178;2023-02-02T04:46:17;101959.03;;;7.27;100.00
58975;BME280;44751;52.236;5.178;2023-02-02T04:48:46;101960.06;;;7.15;100.00
58975;BME280;44751;52.236;5.178;2023-02-02T04:51:13;101958.75;;;7.30;100.00
58975;BME280;44751;52.236;5.178;2023-02-02T04:53:41;101964.78;;;7.22;100.00
58975;BME280;44751;52.236;5.178;2023-02-02T04:56:15;101960.16;;;7.25;100.00
58975;BME280;44751;52.236;5.178;2023-02-02T04:58:43;101959.69;;;7.41;100.00
58975;BME280;44751;52.236;5.178;2023-02-02T05:01:14;101956.59;;;7.24;100.00
58975;BME280;44751;52.236;5.178;2023-02-02T05:03:41;101960.72;;;7.28;100.00
58975;BME280;44751;52.236;5.178;2023-02-02T05:06:08;101973.50;;;7.36;100.00
58975;BME280;44751;52.236;5.178;2023-02-02T05:08:35;101970.69;;;7.16;100.00
58975;BME280;44751;52.236;5.178;2023-02-02T05:11:12;101972.06;;;7.32;100.00
58975;BME280;44751;52.236;5.178;2023-02-02T05:13:39;101948.56;;;7.24;100.00
58975;BME280;44751;52.236;5.178;2023-02-02T05:16:06;101956.22;;;7.29;100.00
58975;BME280;44751;52.236;5.178;2023-02-02T05:18:33;101954.91;;;7.23;100.00
58975;BME280;44751;52.236;5.178;2023-02-02T05:21:03;101971.09;;;7.33;100.00
58975;BME280;44751;52.236;5.178;2023-02-02T05:23:32;101964.91;;;7.21;100.00
58975;BME280;44751;52.236;5.178;2023-02-02T05:25:59;101965.84;;;7.31;100.00
58975;BME280;44751;52.236;5.178;2023-02-02T05:28:33;101972.53;;;7.37;100.00
58975;BME280;44751;52.236;5.178;2023-02-02T05:31:04;101967.22;;;7.26;100.00
58975;BME280;44751;52.236;5.178;2023-02-02T05:33:31;101968.78;;;7.28;100.00
58975;BME280;44751;52.236;5.178;2023-02-02T05:35:58;101972.84;;;7.22;100.00
58975;BME280;44751;52.236;5.178;2023-02-02T05:38:24;101956.41;;;7.16;100.00
58975;BME280;44751;52.236;5.178;2023-02-02T05:40:51;101957.53;;;7.13;100.00
58975;BME280;44751;52.236;5.178;2023-02-02T05:43:18;101967.00;;;7.17;100.00
58975;BME280;44751;52.236;5.178;2023-02-02T05:45:44;101966.88;;;7.19;100.00
58975;BME280;44751;52.236;5.178;2023-02-02T05:48:12;101971.97;;;7.22;100.00
58975;BME280;44751;52.236;5.178;2023-02-02T05:50:41;101979.00;;;7.13;100.00
58975;BME280;44751;52.236;5.178;2023-02-02T05:53:09;101978.50;;;7.08;100.00
58975;BME280;44751;52.236;5.178;2023-02-02T05:55:37;101976.50;;;7.21;100.00
58975;BME280;44751;52.236;5.178;2023-02-02T05:58:04;101979.81;;;7.14;100.00
58975;BME280;44751;52.236;5.178;2023-02-02T06:00:31;101981.47;;;7.26;100.00
58975;BME280;44751;52.236;5.178;2023-02-02T06:03:03;101994.25;;;7.01;100.00
58975;BME280;44751;52.236;5.178;2023-02-02T06:05:29;101974.97;;;7.07;100.00
58975;BME280;44751;52.236;5.178;2023-02-02T06:07:56;101965.50;;;7.03;100.00
58975;BME280;44751;52.236;5.178;2023-02-02T06:10:23;101968.38;;;7.12;100.00
58975;BME280;44751;52.236;5.178;2023-02-02T08:20:30;102085.31;;;7.26;100.00
58975;BME280;44751;52.236;5.178;2023-02-02T08:22:56;102092.91;;;7.20;100.00
58975;BME280;44751;52.236;5.178;2023-02-02T08:25:23;102103.50;;;7.22;100.00
58975;BME280;44751;52.236;5.178;2023-02-02T08:27:54;102103.88;;;7.29;100.00
58975;BME280;44751;52.236;5.178;2023-02-02T08:30:23;102110.31;;;7.26;100.00
58975;BME280;44751;52.236;5.178;2023-02-02T08:32:50;102114.94;;;7.35;100.00
58975;BME280;44751;52.236;5.178;2023-02-02T08:35:16;102114.09;;;7.35;100.00
58975;BME280;44751;52.236;5.178;2023-02-02T08:37:48;102113.84;;;7.38;100.00
58975;BME280;44751;52.236;5.178;2023-02-02T08:40:15;102121.91;;;7.38;100.00
58975;BME280;44751;52.236;5.178;2023-02-02T08:42:41;102126.69;;;7.34;100.00
58975;BME280;44751;52.236;5.178;2023-02-02T08:45:10;102116.53;;;7.38;100.00
58975;BME280;44751;52.236;5.178;2023-02-02T08:47:37;102125.38;;;7.50;100.00
58975;BME280;44751;52.236;5.178;2023-02-02T08:50:03;102129.81;;;7.51;100.00
58975;BME280;44751;52.236;5.178;2023-02-02T08:52:30;102138.09;;;7.48;100.00
58975;BME280;44751;52.236;5.178;2023-02-02T08:54:56;102133.56;;;7.48;100.00
58975;BME280;44751;52.236;5.178;2023-02-02T08:57:23;102138.88;;;7.39;100.00
58975;BME280;44751;52.236;5.178;2023-02-02T08:59:51;102126.84;;;7.54;100.00
58975;BME280;44751;52.236;5.178;2023-02-02T09:02:17;102129.16;;;7.59;100.00
58975;BME280;44751;52.236;5.178;2023-02-02T09:04:44;102140.00;;;7.57;100.00
58975;BME280;44751;52.236;5.178;2023-02-02T09:07:12;102144.50;;;7.68;100.00
58975;BME280;44751;52.236;5.178;2023-02-02T09:09:38;102147.38;;;7.77;100.00
58975;BME280;44751;52.236;5.178;2023-02-02T09:12:05;102150.47;;;7.72;100.00
58975;BME280;44751;52.236;5.178;2023-02-02T09:14:34;102143.41;;;7.71;100.00
58975;BME280;44751;52.236;5.178;2023-02-02T09:17:00;102163.22;;;7.91;100.00
58975;BME280;44751;52.236;5.178;2023-02-02T09:19:27;102157.75;;;7.81;100.00
58975;BME280;44751;52.236;5.178;2023-02-02T09:21:53;102155.94;;;7.82;100.00
58975;BME280;44751;52.236;5.178;2023-02-02T09:24:20;102158.38;;;7.85;100.00
58975;BME280;44751;52.236;5.178;2023-02-02T09:26:46;102160.97;;;7.75;100.00
58975;BME280;44751;52.236;5.178;2023-02-02T09:29:16;102173.00;;;7.81;100.00
58975;BME280;44751;52.236;5.178;2023-02-02T09:31:43;102174.00;;;7.80;100.00
58975;BME280;44751;52.236;5.178;2023-02-02T09:34:11;102176.47;;;7.71;100.00
58975;BME280;44751;52.236;5.178;2023-02-02T09:36:39;102170.97;;;7.73;100.00
58975;BME280;44751;52.236;5.178;2023-02-02T09:39:06;102167.44;;;7.72;100.00
58975;BME280;44751;52.236;5.178;2023-02-02T09:44:30;102174.69;;;7.60;100.00
58975;BME280;44751;52.236;5.178;2023-02-02T09:47:49;102181.25;;;7.68;100.00
58975;BME280;44751;52.236;5.178;2023-02-02T09:50:19;102184.53;;;7.71;100.00
58975;BME280;44751;52.236;5.178;2023-02-02T09:52:56;102185.31;;;7.62;100.00
58975;BME280;44751;52.236;5.178;2023-02-02T09:55:30;102183.91;;;7.79;100.00
58975;BME280;44751;52.236;5.178;2023-02-02T09:58:18;102190.44;;;7.65;100.00
58975;BME280;44751;52.236;5.178;2023-02-02T10:03:31;102199.75;;;7.82;100.00
58975;BME280;44751;52.236;5.178;2023-02-02T10:08:54;102199.06;;;7.69;100.00
58975;BME280;44751;52.236;5.178;2023-02-02T10:14:22;102203.44;;;7.81;100.00
58975;BME280;44751;52.236;5.178;2023-02-02T10:16:53;102198.53;;;7.86;100.00
58975;BME280;44751;52.236;5.178;2023-02-02T10:19:22;102207.91;;;7.92;100.00
58975;BME280;44751;52.236;5.178;2023-02-02T10:22:08;102223.44;;;7.88;100.00
58975;BME280;44751;52.236;5.178;2023-02-02T10:24:37;102208.09;;;7.79;100.00
58975;BME280;44751;52.236;5.178;2023-02-02T10:27:08;102213.41;;;7.91;100.00
58975;BME280;44751;52.236;5.178;2023-02-02T10:32:46;102219.78;;;7.90;100.00
58975;BME280;44751;52.236;5.178;2023-02-02T10:35:40;102231.16;;;7.82;100.00
58975;BME280;44751;52.236;5.178;2023-02-02T10:49:35;102232.47;;;7.99;100.00
58975;BME280;44751;52.236;5.178;2023-02-02T10:52:12;102236.50;;;7.93;100.00
58975;BME280;44751;52.236;5.178;2023-02-02T10:54:51;102232.38;;;7.89;100.00
58975;BME280;44751;52.236;5.178;2023-02-02T11:00:17;102229.28;;;7.94;100.00
58975;BME280;44751;52.236;5.178;2023-02-02T11:02:48;102226.22;;;7.98;100.00
58975;BME280;44751;52.236;5.178;2023-02-02T11:05:27;102218.94;;;8.10;100.00
58975;BME280;44751;52.236;5.178;2023-02-02T11:08:14;102217.53;;;8.27;100.00
58975;BME280;44751;52.236;5.178;2023-02-02T11:10:45;102228.28;;;8.27;100.00
58975;BME280;44751;52.236;5.178;2023-02-02T11:13:27;102217.50;;;8.06;100.00
58975;BME280;44751;52.236;5.178;2023-02-02T11:18:43;102216.75;;;8.16;100.00
58975;BME280;44751;52.236;5.178;2023-02-02T11:21:32;102221.72;;;8.20;100.00
58975;BME280;44751;52.236;5.178;2023-02-02T11:24:14;102233.34;;;8.21;100.00
58975;BME280;44751;52.236;5.178;2023-02-02T11:26:47;102225.47;;;8.29;100.00
58975;BME280;44751;52.236;5.178;2023-02-02T11:29:22;102222.00;;;8.17;100.00
58975;BME280;44751;52.236;5.178;2023-02-02T11:31:51;102224.28;;;8.22;100.00
58975;BME280;44751;52.236;5.178;2023-02-02T11:34:21;102223.38;;;8.11;100.00
58975;BME280;44751;52.236;5.178;2023-02-02T11:37:15;102218.13;;;8.10;100.00
58975;BME280;44751;52.236;5.178;2023-02-02T11:39:45;102224.31;;;8.10;100.00
58975;BME280;44751;52.236;5.178;2023-02-02T11:42:30;102223.38;;;8.11;100.00
58975;BME280;44751;52.236;5.178;2023-02-02T11:44:57;102226.13;;;8.21;100.00
58975;BME280;44751;52.236;5.178;2023-02-02T11:47:31;102225.31;;;8.09;100.00
58975;BME280;44751;52.236;5.178;2023-02-02T11:50:00;102224.06;;;8.13;100.00
58975;BME280;44751;52.236;5.178;2023-02-02T11:52:30;102207.25;;;8.11;100.00
58975;BME280;44751;52.236;5.178;2023-02-02T11:55:00;102213.94;;;8.17;100.00
58975;BME280;44751;52.236;5.178;2023-02-02T11:57:28;102214.31;;;8.12;100.00
58975;BME280;44751;52.236;5.178;2023-02-02T12:00:24;102211.50;;;8.14;100.00
58975;BME280;44751;52.236;5.178;2023-02-02T12:02:52;102211.00;;;8.09;100.00
58975;BME280;44751;52.236;5.178;2023-02-02T12:07:46;102217.78;;;8.03;100.00
58975;BME280;44751;52.236;5.178;2023-02-02T12:15:52;102218.03;;;8.00;100.00
58975;BME280;44751;52.236;5.178;2023-02-02T12:21:19;102220.22;;;7.95;100.00
58975;BME280;44751;52.236;5.178;2023-02-02T12:23:51;102221.91;;;8.07;100.00
58975;BME280;44751;52.236;5.178;2023-02-02T12:26:24;102212.66;;;8.00;100.00
58975;BME280;44751;52.236;5.178;2023-02-02T12:34:46;102208.53;;;7.96;100.00
58975;BME280;44751;52.236;5.178;2023-02-02T12:46:17;102212.03;;;7.96;100.00
58975;BME280;44751;52.236;5.178;2023-02-02T12:55:15;102208.53;;;7.96;100.00
58975;BME280;44751;52.236;5.178;2023-02-02T12:58:00;102196.56;;;7.88;100.00
58975;BME280;44751;52.236;5.178;2023-02-02T13:03:20;102194.97;;;7.97;100.00
58975;BME280;44751;52.236;5.178;2023-02-02T13:08:47;102200.09;;;7.56;100.00
58975;BME280;44751;52.236;5.178;2023-02-02T13:11:39;102201.53;;;7.60;100.00
58975;BME280;44751;52.236;5.178;2023-02-02T13:14:18;102202.63;;;7.69;100.00
58975;BME280;44751;52.236;5.178;2023-02-02T13:16:49;102204.47;;;7.57;100.00
58975;BME280;44751;52.236;5.178;2023-02-02T13:19:37;102216.56;;;7.52;100.00
58975;BME280;44751;52.236;5.178;2023-02-02T13:22:11;102211.59;;;7.35;100.00
58975;BME280;44751;52.236;5.178;2023-02-02T13:24:41;102214.41;;;7.34;100.00
58975;BME280;44751;52.236;5.178;2023-02-02T13:27:14;102210.75;;;7.35;100.00
58975;BME280;44751;52.236;5.178;2023-02-02T13:29:47;102217.69;;;7.38;100.00
58975;BME280;44751;52.236;5.178;2023-02-02T13:32:37;102213.78;;;7.30;100.00
58975;BME280;44751;52.236;5.178;2023-02-02T13:35:21;102212.72;;;7.21;100.00
58975;BME280;44751;52.236;5.178;2023-02-02T13:38:10;102207.94;;;7.36;100.00
58975;BME280;44751;52.236;5.178;2023-02-02T13:40:43;102206.25;;;7.35;100.00
58975;BME280;44751;52.236;5.178;2023-02-02T13:43:23;102216.47;;;7.30;100.00
58975;BME280;44751;52.236;5.178;2023-02-02T13:57:55;102214.66;;;7.31;100.00
58975;BME280;44751;52.236;5.178;2023-02-02T14:00:59;102214.53;;;7.32;100.00
58975;BME280;44751;52.236;5.178;2023-02-02T14:03:36;102207.72;;;7.28;100.00
58975;BME280;44751;52.236;5.178;2023-02-02T14:06:15;102208.28;;;7.43;100.00
58975;BME280;44751;52.236;5.178;2023-02-02T14:08:53;102218.81;;;7.23;100.00
58975;BME280;44751;52.236;5.178;2023-02-02T14:19:57;102222.81;;;7.29;100.00
58975;BME280;44751;52.236;5.178;2023-02-02T14:22:39;102223.19;;;7.36;100.00
58975;BME280;44751;52.236;5.178;2023-02-02T14:28:10;102215.41;;;7.33;100.00
58975;BME280;44751;52.236;5.178;2023-02-02T14:30:38;102217.09;;;7.34;100.00
58975;BME280;44751;52.236;5.178;2023-02-02T14:54:40;102239.44;;;7.23;100.00
58975;BME280;44751;52.236;5.178;2023-02-02T17:23:14;102321.69;;;7.47;100.00
58975;BME280;44751;52.236;5.178;2023-02-02T17:25:51;102324.00;;;7.52;100.00
58975;BME280;44751;52.236;5.178;2023-02-02T17:28:27;102327.53;;;7.52;100.00
58975;BME280;44751;52.236;5.178;2023-02-02T17:48:58;102333.88;;;7.62;100.00
58975;BME280;44751;52.236;5.178;2023-02-02T17:51:29;102320.22;;;7.43;100.00
58975;BME280;44751;52.236;5.178;2023-02-02T17:54:13;102319.72;;;7.49;100.00
58975;BME280;44751;52.236;5.178;2023-02-02T18:01:51;102317.78;;;7.51;100.00
58975;BME280;44751;52.236;5.178;2023-02-02T18:04:24;102329.13;;;7.55;100.00
58975;BME280;44751;52.236;5.178;2023-02-02T18:06:54;102310.09;;;7.58;100.00
58975;BME280;44751;52.236;5.178;2023-02-02T20:06:02;102320.66;;;7.82;100.00
58975;BME280;44751;52.236;5.178;2023-02-02T20:08:40;102323.47;;;7.81;100.00
58975;BME280;44751;52.236;5.178;2023-02-02T20:11:32;102320.31;;;7.87;100.00
58975;BME280;44751;52.236;5.178;2023-02-02T20:16:40;102311.53;;;7.85;100.00
58975;BME280;44751;52.236;5.178;2023-02-02T20:19:26;102313.09;;;7.87;100.00
58975;BME280;44751;52.236;5.178;2023-02-02T20:21:53;102315.69;;;7.89;100.00
58975;BME280;44751;52.236;5.178;2023-02-02T20:24:31;102328.81;;;8.04;100.00
58975;BME280;44751;52.236;5.178;2023-02-02T20:27:13;102318.19;;;8.02;100.00
58975;BME280;44751;52.236;5.178;2023-02-02T20:29:43;102316.97;;;7.95;100.00
58975;BME280;44751;52.236;5.178;2023-02-02T20:32:34;102320.88;;;8.02;100.00
58975;BME280;44751;52.236;5.178;2023-02-02T20:35:23;102320.13;;;8.11;100.00
58975;BME280;44751;52.236;5.178;2023-02-02T20:37:52;102319.16;;;8.12;100.00
58975;BME280;44751;52.236;5.178;2023-02-02T20:40:24;102336.09;;;8.24;100.00
58975;BME280;44751;52.236;5.178;2023-02-02T20:42:50;102324.88;;;8.19;100.00
58975;BME280;44751;52.236;5.178;2023-02-02T20:45:17;102324.72;;;8.32;100.00
58975;BME280;44751;52.236;5.178;2023-02-02T20:47:46;102336.19;;;8.34;100.00
58975;BME280;44751;52.236;5.178;2023-02-02T20:50:17;102318.50;;;8.20;100.00
58975;BME280;44751;52.236;5.178;2023-02-02T20:52:44;102328.66;;;8.28;100.00
58975;BME280;44751;52.236;5.178;2023-02-02T20:55:12;102327.66;;;8.29;100.00
58975;BME280;44751;52.236;5.178;2023-02-02T20:57:45;102322.97;;;8.31;100.00
58975;BME280;44751;52.236;5.178;2023-02-02T21:00:17;102336.97;;;8.25;100.00
58975;BME280;44751;52.236;5.178;2023-02-02T21:02:46;102321.81;;;8.24;100.00
58975;BME280;44751;52.236;5.178;2023-02-02T21:05:16;102328.78;;;8.26;100.00
58975;BME280;44751;52.236;5.178;2023-02-02T21:07:43;102334.72;;;8.30;100.00
58975;BME280;44751;52.236;5.178;2023-02-02T21:10:10;102331.69;;;8.23;100.00
58975;BME280;44751;52.236;5.178;2023-02-02T21:12:36;102336.94;;;8.36;100.00
58975;BME280;44751;52.236;5.178;2023-02-02T21:15:03;102322.28;;;8.29;100.00
58975;BME280;44751;52.236;5.178;2023-02-02T21:17:29;102333.50;;;8.34;100.00
58975;BME280;44751;52.236;5.178;2023-02-02T21:19:56;102321.69;;;8.25;100.00
58975;BME280;44751;52.236;5.178;2023-02-02T21:22:25;102323.25;;;8.28;100.00
58975;BME280;44751;52.236;5.178;2023-02-02T21:24:53;102329.69;;;8.37;100.00
58975;BME280;44751;52.236;5.178;2023-02-02T21:27:19;102332.53;;;8.35;100.00
58975;BME280;44751;52.236;5.178;2023-02-02T21:29:48;102322.97;;;8.31;100.00
58975;BME280;44751;52.236;5.178;2023-02-02T21:32:15;102326.44;;;8.22;100.00
58975;BME280;44751;52.236;5.178;2023-02-02T21:34:44;102320.25;;;8.21;100.00
58975;BME280;44751;52.236;5.178;2023-02-02T21:37:13;102327.66;;;8.29;100.00
58975;BME280;44751;52.236;5.178;2023-02-02T21:39:44;102321.94;;;8.22;100.00
58975;BME280;44751;52.236;5.178;2023-02-02T21:42:21;102329.47;;;8.29;100.00
58975;BME280;44751;52.236;5.178;2023-02-02T21:45:21;102325.34;;;8.24;100.00
58975;BME280;44751;52.236;5.178;2023-02-02T21:47:54;102326.66;;;8.30;100.00
58975;BME280;44751;52.236;5.178;2023-02-02T21:50:28;102332.53;;;8.35;100.00
58975;BME280;44751;52.236;5.178;2023-02-02T21:55:37;102328.66;;;8.28;100.00
58975;BME280;44751;52.236;5.178;2023-02-02T21:58:38;102310.28;;;8.33;100.00
58975;BME280;44751;52.236;5.178;2023-02-02T22:01:28;102316.66;;;8.32;100.00
58975;BME280;44751;52.236;5.178;2023-02-02T22:04:13;102326.88;;;8.38;100.00
58975;BME280;44751;52.236;5.178;2023-02-02T22:06:45;102318.59;;;8.30;100.00
58975;BME280;44751;52.236;5.178;2023-02-02T22:09:23;102309.41;;;8.33;100.00
58975;BME280;44751;52.236;5.178;2023-02-02T22:12:00;102309.19;;;8.24;100.00
58975;BME280;44751;52.236;5.178;2023-02-02T22:14:38;102313.19;;;8.42;100.00
58975;BME280;44751;52.236;5.178;2023-02-02T22:20:12;102304.03;;;8.33;100.00
58975;BME280;44751;52.236;5.178;2023-02-02T22:22:46;102302.47;;;8.30;100.00
58975;BME280;44751;52.236;5.178;2023-02-02T22:30:39;102303.06;;;8.34;100.00
58975;BME280;44751;52.236;5.178;2023-02-02T22:33:19;102285.91;;;8.46;100.00
58975;BME280;44751;52.236;5.178;2023-02-02T22:35:53;102288.56;;;8.25;100.00
58975;BME280;44751;52.236;5.178;2023-02-02T22:38:25;102270.69;;;8.35;100.00
58975;BME280;44751;52.236;5.178;2023-02-02T22:40:52;102249.41;;;8.32;100.00